createdAt,value
2018-06-07T00:01:07.765Z,14.70
2018-06-07T00:03:35.925Z,14.13
2018-06-07T00:06:04.141Z,14.00
2018-06-07T00:08:32.297Z,14.77
2018-06-07T00:11:00.432Z,14.77
2018-06-07T00:13:28.605Z,13.60
2018-06-07T00:15:56.787Z,14.23
2018-06-07T00:18:25.041Z,15.23
2018-06-07T00:20:53.443Z,14.70
2018-06-07T00:23:21.604Z,14.67
2018-06-07T00:25:49.760Z,14.07
2018-06-07T00:28:17.923Z,14.53
2018-06-07T00:30:46.103Z,15.43
2018-06-07T00:33:14.317Z,14.20
2018-06-07T00:35:48.070Z,15.13
2018-06-07T00:38:16.571Z,14.77
2018-06-07T00:40:44.740Z,15.30
2018-06-07T00:43:12.898Z,15.87
2018-06-07T00:45:41.182Z,14.40
2018-06-07T00:48:09.334Z,15.83
2018-06-07T00:50:37.461Z,15.43
2018-06-07T00:53:05.614Z,15.73
2018-06-07T00:55:33.758Z,15.27
2018-06-07T00:58:02.242Z,15.60
2018-06-07T01:00:30.410Z,15.17
2018-06-07T01:02:58.532Z,16.20
2018-06-07T01:05:26.762Z,16.47
2018-06-07T01:07:55.052Z,15.93
2018-06-07T01:10:23.209Z,15.83
2018-06-07T01:12:51.434Z,15.90
2018-06-07T01:15:19.883Z,16.00
2018-06-07T01:17:48.043Z,16.23
2018-06-07T01:20:16.235Z,16.33
2018-06-07T01:22:44.385Z,15.63
2018-06-07T01:25:12.504Z,16.63
2018-06-07T01:27:41.075Z,16.60
2018-06-07T01:30:20.259Z,16.37
2018-06-07T01:32:59.435Z,16.63
2018-06-07T01:35:27.605Z,17.07
2018-06-07T01:38:59.105Z,17.57
2018-06-07T01:41:27.274Z,17.83
2018-06-07T01:43:55.464Z,17.20
2018-06-07T01:46:23.593Z,17.43
2018-06-07T01:48:51.757Z,17.07
2018-06-07T01:51:19.913Z,16.27
2018-06-07T01:53:48.055Z,16.27
2018-06-07T01:56:16.229Z,17.00
2018-06-07T01:58:44.435Z,17.00
2018-06-07T02:01:12.575Z,18.67
2018-06-07T02:03:40.763Z,17.03
2018-06-07T02:06:08.941Z,17.20
2018-06-07T02:08:37.126Z,17.40
2018-06-07T02:11:05.400Z,14.80
2018-06-07T02:13:33.606Z,15.80
2018-06-07T02:16:02.065Z,17.13
2018-06-07T02:18:30.209Z,18.23
2018-06-07T02:20:58.428Z,18.40
2018-06-07T02:23:26.588Z,20.30
2018-06-07T02:25:54.760Z,18.97
2018-06-07T02:28:23.022Z,19.67
2018-06-07T02:30:51.173Z,16.17
2018-06-07T02:33:19.321Z,19.33
2018-06-07T02:35:47.476Z,21.63
2018-06-07T02:38:15.621Z,17.90
2018-06-07T02:40:43.825Z,20.50
2018-06-07T02:43:12.018Z,19.47
2018-06-07T02:45:40.255Z,19.03
2018-06-07T02:48:08.438Z,17.57
2018-06-07T02:50:36.607Z,20.53
2018-06-07T02:53:04.826Z,17.87
2018-06-07T02:55:33.078Z,19.03
2018-06-07T02:58:01.208Z,17.07
2018-06-07T03:00:29.381Z,18.00
2018-06-07T03:02:57.529Z,20.60
2018-06-07T03:05:26.080Z,20.90
2018-06-07T03:07:54.242Z,19.97
2018-06-07T03:10:22.365Z,16.60
2018-06-07T03:12:50.519Z,19.00
2018-06-07T03:15:18.980Z,18.93
2018-06-07T03:17:47.133Z,18.50
2018-06-07T03:20:15.284Z,19.80
2018-06-07T03:22:43.462Z,18.63
2018-06-07T03:25:11.594Z,17.97
2018-06-07T03:27:39.766Z,15.60
2018-06-07T03:30:07.974Z,17.67
2018-06-07T03:32:36.131Z,21.23
2018-06-07T03:35:04.389Z,20.00
2018-06-07T03:37:32.610Z,19.60
2018-06-07T03:40:00.826Z,19.33
2018-06-07T03:42:29.020Z,20.03
2018-06-07T03:44:57.189Z,18.97
2018-06-07T03:47:25.350Z,17.67
2018-06-07T03:49:53.474Z,18.97
2018-06-07T03:52:21.612Z,17.87
2018-06-07T03:54:49.798Z,18.17
2018-06-07T03:57:17.947Z,19.60
2018-06-07T03:59:46.087Z,19.63
2018-06-07T04:02:14.292Z,19.80
2018-06-07T04:04:42.468Z,19.63
2018-06-07T04:07:10.598Z,20.07
2018-06-07T04:09:38.818Z,17.10
2018-06-07T04:12:07.099Z,17.87
2018-06-07T04:14:35.282Z,19.07
2018-06-07T04:17:04.340Z,19.00
2018-06-07T04:19:32.510Z,18.80
2018-06-07T04:22:01.546Z,15.73
2018-06-07T04:24:29.697Z,17.27
2018-06-07T04:26:57.862Z,18.23
2018-06-07T04:29:26.054Z,18.40
2018-06-07T04:31:54.195Z,19.13
2018-06-07T04:34:22.378Z,19.17
2018-06-07T04:36:50.558Z,19.77
2018-06-07T04:39:18.711Z,18.63
2018-06-07T04:41:47.132Z,20.70
2018-06-07T04:44:15.611Z,19.33
2018-06-07T04:46:44.097Z,20.33
2018-06-07T04:49:12.565Z,20.80
2018-06-07T04:51:40.736Z,19.10
2018-06-07T04:54:12.741Z,21.57
2018-06-07T04:56:41.377Z,20.43
2018-06-07T04:59:09.569Z,20.50
2018-06-07T05:01:37.769Z,21.93
2018-06-07T05:04:06.337Z,20.77
2018-06-07T05:06:34.585Z,21.33
2018-06-07T05:09:03.196Z,22.73
2018-06-07T05:11:31.405Z,22.00
2018-06-07T05:13:59.621Z,22.90
2018-06-07T05:16:27.802Z,22.37
2018-06-07T05:18:55.970Z,23.07
2018-06-07T05:21:24.139Z,24.53
2018-06-07T05:23:52.382Z,22.73
2018-06-07T05:26:20.536Z,23.23
2018-06-07T05:28:48.752Z,23.80
2018-06-07T05:31:16.915Z,25.27
2018-06-07T05:33:45.101Z,24.80
2018-06-07T05:36:13.364Z,24.43
2018-06-07T05:38:41.542Z,26.03
2018-06-07T05:41:09.680Z,24.57
2018-06-07T05:43:38.212Z,25.03
2018-06-07T05:46:06.444Z,25.33
2018-06-07T05:48:34.632Z,25.10
2018-06-07T05:51:03.590Z,26.30
2018-06-07T05:53:31.809Z,25.63
2018-06-07T05:56:00.051Z,23.50
2018-06-07T05:58:28.154Z,24.07
2018-06-07T06:00:56.336Z,23.73
2018-06-07T06:03:24.534Z,24.03
2018-06-07T06:05:52.776Z,25.30
2018-06-07T06:08:20.914Z,23.57
2018-06-07T06:10:49.093Z,23.17
2018-06-07T06:13:17.309Z,21.70
2018-06-07T06:15:45.472Z,21.43
2018-06-07T06:18:13.602Z,22.63
2018-06-07T06:20:41.776Z,21.90
2018-06-07T06:23:09.966Z,21.37
2018-06-07T06:25:38.192Z,22.17
2018-06-07T06:28:06.420Z,21.43
2018-06-07T06:30:34.696Z,22.63
2018-06-07T06:33:03.346Z,22.87
2018-06-07T06:35:31.480Z,24.03
2018-06-07T06:38:30.145Z,23.40
2018-06-07T06:40:58.367Z,24.20
2018-06-07T06:43:26.508Z,22.90
2018-06-07T06:45:54.684Z,23.13
2018-06-07T06:48:22.878Z,22.40
2018-06-07T06:50:51.069Z,21.50
2018-06-07T06:53:19.357Z,22.00
2018-06-07T06:55:47.576Z,23.30
2018-06-07T06:58:15.720Z,22.77
2018-06-07T07:00:44.019Z,22.27
2018-06-07T07:03:12.268Z,22.47
2018-06-07T07:05:40.473Z,22.47
2018-06-07T07:08:08.599Z,22.23
2018-06-07T07:10:38.902Z,21.43
2018-06-07T07:13:07.121Z,21.00
2018-06-07T07:15:35.401Z,21.90
2018-06-07T07:18:03.637Z,20.83
2018-06-07T07:20:32.873Z,20.80
2018-06-07T07:23:02.053Z,20.30
2018-06-07T07:25:30.257Z,20.50
2018-06-07T07:27:58.540Z,20.83
2018-06-07T07:30:26.725Z,22.13
2018-06-07T07:32:56.771Z,22.50
2018-06-07T07:35:25.206Z,22.13
2018-06-07T07:37:53.979Z,21.73
2018-06-07T07:40:23.692Z,20.63
2018-06-07T07:42:51.890Z,21.40
2018-06-07T07:45:27.929Z,22.07
2018-06-07T07:47:58.545Z,21.47
2018-06-07T07:50:26.807Z,20.00
2018-06-07T07:52:54.964Z,20.80
2018-06-07T07:55:23.123Z,21.07
2018-06-07T07:57:51.271Z,19.93
2018-06-07T08:00:19.805Z,20.57
2018-06-07T08:02:47.975Z,20.23
2018-06-07T08:05:20.834Z,20.83
2018-06-07T08:07:49.066Z,21.73
2018-06-07T08:10:18.227Z,21.37
2018-06-07T08:12:46.384Z,24.03
2018-06-07T08:15:20.140Z,24.60
2018-06-07T08:17:48.333Z,24.43
2018-06-07T08:20:16.893Z,24.03
2018-06-07T08:22:48.491Z,24.23
2018-06-07T08:25:16.733Z,26.35
2018-06-07T08:27:44.945Z,27.10
2018-06-07T08:30:13.268Z,27.03
2018-06-07T08:32:41.453Z,26.40
2018-06-07T08:35:09.678Z,27.37
2018-06-07T08:37:37.866Z,25.70
2018-06-07T08:40:06.084Z,26.17
2018-06-07T08:42:34.271Z,26.40
2018-06-07T08:45:04.690Z,25.00
2018-06-07T08:47:32.972Z,23.97
2018-06-07T08:50:01.183Z,22.17
2018-06-07T08:52:29.354Z,22.33
2018-06-07T08:54:58.891Z,20.53
2018-06-07T08:57:27.158Z,20.17
2018-06-07T08:59:56.302Z,20.47
2018-06-07T09:02:24.529Z,22.20
2018-06-07T09:04:53.123Z,21.77
2018-06-07T09:07:21.241Z,20.57
2018-06-07T09:09:49.448Z,18.53
2018-06-07T09:12:17.585Z,19.67
2018-06-07T09:14:45.726Z,18.60
2018-06-07T09:17:13.955Z,17.23
2018-06-07T09:19:43.049Z,17.87
2018-06-07T09:22:11.217Z,16.50
2018-06-07T09:24:39.731Z,15.63
2018-06-07T09:27:08.779Z,17.13
2018-06-07T09:29:36.996Z,16.93
2018-06-07T09:32:05.165Z,16.80
2018-06-07T09:34:33.412Z,17.30
2018-06-07T09:37:01.639Z,16.77
2018-06-07T09:39:29.751Z,17.13
2018-06-07T09:41:57.969Z,18.27
2018-06-07T09:44:26.191Z,17.63
2018-06-07T09:46:54.439Z,19.57
2018-06-07T09:49:22.589Z,18.03
2018-06-07T09:51:50.751Z,18.27
2018-06-07T09:54:19.019Z,19.50
2018-06-07T09:56:47.201Z,18.10
2018-06-07T09:59:15.389Z,17.43
2018-06-07T10:01:43.559Z,18.30
2018-06-07T10:04:11.749Z,17.60
2018-06-07T10:06:40.325Z,18.50
2018-06-07T10:09:08.556Z,18.40
2018-06-07T10:11:36.856Z,17.53
2018-06-07T10:14:05.060Z,17.70
2018-06-07T10:16:33.295Z,18.70
2018-06-07T10:19:01.518Z,18.80
2018-06-07T10:21:29.715Z,18.70
2018-06-07T10:23:57.901Z,19.57
2018-06-07T10:26:26.109Z,18.77
2018-06-07T10:28:54.368Z,16.97
2018-06-07T10:31:22.627Z,19.33
2018-06-07T10:33:50.799Z,18.30
2018-06-07T10:36:19.975Z,17.10
2018-06-07T10:38:48.233Z,17.67
2018-06-07T10:41:19.127Z,18.85
2018-06-07T10:43:51.417Z,19.98
2018-06-07T10:46:19.629Z,19.90
2018-06-07T10:48:49.500Z,18.77
2018-06-07T10:51:18.407Z,19.05
2018-06-07T10:53:46.825Z,20.30
2018-06-07T10:56:15.051Z,20.70
2018-06-07T10:58:43.217Z,19.75
2018-06-07T11:01:11.426Z,19.17
2018-06-07T11:03:39.723Z,21.70
2018-06-07T11:06:10.615Z,22.07
2018-06-07T11:08:38.859Z,20.62
2018-06-07T11:11:07.725Z,18.95
2018-06-07T11:13:35.914Z,20.08
2018-06-07T11:16:05.166Z,20.95
2018-06-07T11:18:33.702Z,22.30
2018-06-07T11:21:02.358Z,20.92
2018-06-07T11:23:30.656Z,21.17
2018-06-07T11:26:04.956Z,19.92
2018-06-07T11:28:33.142Z,22.25
2018-06-07T11:31:01.306Z,21.90
2018-06-07T11:33:29.500Z,20.00
2018-06-07T11:35:57.755Z,19.23
2018-06-07T11:38:25.936Z,20.90
2018-06-07T11:40:54.207Z,20.82
2018-06-07T11:43:22.309Z,20.90
2018-06-07T11:45:50.460Z,19.80
2018-06-07T11:48:18.631Z,19.95
2018-06-07T11:50:46.761Z,20.43
2018-06-07T11:53:14.914Z,19.90
2018-06-07T11:55:43.094Z,20.97
2018-06-07T11:58:11.277Z,19.57
2018-06-07T12:00:41.544Z,21.12
2018-06-07T12:03:09.795Z,19.50
2018-06-07T12:05:37.958Z,21.90
2018-06-07T12:08:06.250Z,21.02
2018-06-07T12:10:34.372Z,17.60
2018-06-07T12:13:02.514Z,21.50
2018-06-07T12:15:30.760Z,21.73
2018-06-07T12:17:58.929Z,21.37
2018-06-07T12:20:27.340Z,20.32
2018-06-07T12:22:56.511Z,18.75
2018-06-07T12:25:24.729Z,21.05
2018-06-07T12:27:52.868Z,18.50
2018-06-07T12:30:21.054Z,21.33
2018-06-07T12:32:49.518Z,19.07
2018-06-07T12:35:17.761Z,19.98
2018-06-07T12:37:46.106Z,18.30
2018-06-07T12:40:14.384Z,19.07
2018-06-07T12:42:42.607Z,17.87
2018-06-07T12:45:10.783Z,19.37
2018-06-07T12:47:39.082Z,17.67
2018-06-07T12:50:07.289Z,18.92
2018-06-07T12:52:35.421Z,18.90
2018-06-07T12:55:03.752Z,19.55
2018-06-07T12:57:31.973Z,18.77
2018-06-07T13:00:00.162Z,18.35
2018-06-07T13:02:28.301Z,18.02
2018-06-07T13:04:56.469Z,19.25
2018-06-07T13:07:24.646Z,19.00
2018-06-07T13:09:52.827Z,18.12
2018-06-07T13:12:21.032Z,17.48
2018-06-07T13:14:49.282Z,18.25
2018-06-07T13:17:17.538Z,17.92
2018-06-07T13:19:45.745Z,16.95
2018-06-07T13:22:13.971Z,17.57
2018-06-07T13:24:42.134Z,16.32
2018-06-07T13:27:10.457Z,17.92
2018-06-07T13:29:38.660Z,17.67
2018-06-07T13:32:06.892Z,19.37
2018-06-07T13:34:35.118Z,19.05
2018-06-07T13:37:03.319Z,21.50
2018-06-07T13:39:31.487Z,17.02
2018-06-07T13:41:59.676Z,17.25
2018-06-07T13:44:27.826Z,18.20
2018-06-07T13:46:56.125Z,18.07
2018-06-07T13:49:24.430Z,19.30
2018-06-07T13:51:52.682Z,16.80
2018-06-07T13:54:20.879Z,19.98
2018-06-07T13:56:49.019Z,19.67
2018-06-07T13:59:17.187Z,18.37
2018-06-07T14:01:45.507Z,18.35
2018-06-07T14:04:13.645Z,18.92
2018-06-07T14:06:41.775Z,18.10
2018-06-07T14:09:10.247Z,18.55
2018-06-07T14:11:38.596Z,19.15
2018-06-07T14:14:06.853Z,17.50
2018-06-07T14:16:35.013Z,17.30
2018-06-07T14:19:03.172Z,19.05
2018-06-07T14:21:31.352Z,18.80
2018-06-07T14:23:59.565Z,19.40
2018-06-07T14:26:30.297Z,16.97
2018-06-07T14:28:59.076Z,19.82
2018-06-07T14:31:27.216Z,18.85
2018-06-07T14:33:55.485Z,18.15
2018-06-07T14:36:23.662Z,17.85
2018-06-07T14:38:52.256Z,18.48
2018-06-07T14:41:20.438Z,17.67
2018-06-07T14:43:51.505Z,18.42
2018-06-07T14:46:19.740Z,18.60
2018-06-07T14:48:47.898Z,19.45
2018-06-07T14:51:16.034Z,18.37
2018-06-07T14:53:44.234Z,18.48
2018-06-07T14:56:12.504Z,17.98
2018-06-07T14:58:40.706Z,18.02
2018-06-07T15:01:09.040Z,17.92
2018-06-07T15:03:37.681Z,20.45
2018-06-07T15:06:05.951Z,18.27
2018-06-07T15:08:34.618Z,18.25
2018-06-07T15:11:02.981Z,18.25
2018-06-07T15:13:31.168Z,18.77
2018-06-07T15:15:59.303Z,18.10
2018-06-07T15:18:27.514Z,18.67
2018-06-07T15:20:55.847Z,18.82
2018-06-07T15:23:24.194Z,17.77
2018-06-07T15:25:52.649Z,18.02
2018-06-07T15:28:20.769Z,19.17
2018-06-07T15:30:49.331Z,17.32
2018-06-07T15:33:17.537Z,18.23
2018-06-07T15:35:46.318Z,21.00
2018-06-07T15:38:14.685Z,19.12
2018-06-07T15:40:42.869Z,19.15
2018-06-07T15:43:10.990Z,17.95
2018-06-07T15:45:39.811Z,18.90
2018-06-07T15:48:08.171Z,17.30
2018-06-07T15:50:36.287Z,18.30
2018-06-07T15:53:04.547Z,19.92
2018-06-07T15:55:32.785Z,18.32
2018-06-07T15:58:00.959Z,19.57
2018-06-07T16:00:29.245Z,19.62
2018-06-07T16:02:57.433Z,18.32
2018-06-07T16:05:25.696Z,18.80
2018-06-07T16:07:54.663Z,18.90
2018-06-07T16:10:22.802Z,18.45
2018-06-07T16:12:50.992Z,19.40
2018-06-07T16:15:19.359Z,19.65
2018-06-07T16:17:47.515Z,18.42
2018-06-07T16:20:15.870Z,17.75
2018-06-07T16:22:44.019Z,18.73
2018-06-07T16:25:12.212Z,18.17
2018-06-07T16:27:40.385Z,19.82
2018-06-07T16:30:08.633Z,20.10
2018-06-07T16:32:36.937Z,17.10
2018-06-07T16:35:05.525Z,9.67
2018-06-07T16:37:33.681Z,7.90
2018-06-07T16:40:01.874Z,7.70
2018-06-07T16:42:30.064Z,7.33
2018-06-07T16:44:58.236Z,7.93
2018-06-07T16:47:26.383Z,8.50
2018-06-07T16:49:54.581Z,9.30
2018-06-07T16:52:22.709Z,11.70
2018-06-07T16:54:51.177Z,11.13
2018-06-07T16:57:19.544Z,11.70
2018-06-07T16:59:47.797Z,11.57
2018-06-07T17:02:15.937Z,12.10
2018-06-07T17:04:44.137Z,12.07
2018-06-07T17:07:12.336Z,13.30
2018-06-07T17:09:40.581Z,13.37
2018-06-07T17:12:10.157Z,14.13
2018-06-07T17:14:38.417Z,13.07
2018-06-07T17:17:06.887Z,13.27
2018-06-07T17:19:35.047Z,13.83
2018-06-07T17:22:03.458Z,14.83
2018-06-07T17:24:31.655Z,14.13
2018-06-07T17:27:00.307Z,14.30
2018-06-07T17:29:28.709Z,15.67
2018-06-07T17:31:56.907Z,15.80
2018-06-07T17:34:25.073Z,15.70
2018-06-07T17:36:53.221Z,15.90
2018-06-07T17:39:21.600Z,16.10
2018-06-07T17:41:49.836Z,15.63
2018-06-07T17:44:18.012Z,17.77
2018-06-07T17:46:46.361Z,18.90
2018-06-07T17:49:14.539Z,20.07
2018-06-07T17:51:42.746Z,20.03
2018-06-07T17:54:10.987Z,20.53
2018-06-07T17:56:39.161Z,20.33
2018-06-07T17:59:07.372Z,20.77
2018-06-07T18:01:35.575Z,20.93
2018-06-07T18:04:03.830Z,20.17
2018-06-07T18:06:32.014Z,22.37
2018-06-07T18:09:00.213Z,22.10
2018-06-07T18:11:28.425Z,24.37
2018-06-07T18:13:57.420Z,27.53
2018-06-07T18:16:25.639Z,27.63
2018-06-07T18:18:53.824Z,28.03
2018-06-07T18:21:22.435Z,27.30
2018-06-07T18:23:50.664Z,27.07
2018-06-07T18:26:18.790Z,28.10
2018-06-07T18:28:47.096Z,27.90
2018-06-07T18:31:15.259Z,28.77
2018-06-07T18:33:43.457Z,27.90
2018-06-07T18:36:11.668Z,26.37
2018-06-07T18:38:39.863Z,25.80
2018-06-07T18:41:08.288Z,25.37
2018-06-07T18:43:36.526Z,26.47
2018-06-07T18:46:04.790Z,27.83
2018-06-07T18:48:32.963Z,25.00
2018-06-07T18:51:01.120Z,23.83
2018-06-07T18:53:29.598Z,21.83
2018-06-07T18:55:57.832Z,21.13
2018-06-07T18:58:25.977Z,19.90
2018-06-07T19:00:54.134Z,20.67
2018-06-07T19:03:22.330Z,19.10
2018-06-07T19:05:50.480Z,18.60
2018-06-07T19:08:18.849Z,18.77
2018-06-07T19:10:47.665Z,19.20
2018-06-07T19:13:21.361Z,18.23
2018-06-07T19:15:49.609Z,18.03
2018-06-07T19:18:17.770Z,19.80
2018-06-07T19:20:51.412Z,19.13
2018-06-07T19:23:19.591Z,18.60
2018-06-07T19:25:53.114Z,16.47
2018-06-07T19:28:21.283Z,17.73
2018-06-07T19:30:49.475Z,16.37
2018-06-07T19:33:22.992Z,18.07
2018-06-07T19:35:51.154Z,17.13
2018-06-07T19:38:19.346Z,18.73
2018-06-07T19:40:52.848Z,18.27
2018-06-07T19:43:21.045Z,19.00
2018-06-07T19:45:49.215Z,18.13
2018-06-07T19:48:17.389Z,18.67
2018-06-07T19:50:45.592Z,17.90
2018-06-07T19:53:14.010Z,18.40
2018-06-07T19:55:42.173Z,18.07
2018-06-07T19:58:10.363Z,19.37
2018-06-07T20:00:38.652Z,17.83
2018-06-07T20:03:07.176Z,17.07
2018-06-07T20:05:35.337Z,17.57
2018-06-07T20:08:03.618Z,19.27
2018-06-07T20:10:31.779Z,19.43
2018-06-07T20:13:00.167Z,18.43
2018-06-07T20:15:28.895Z,19.13
2018-06-07T20:17:57.099Z,20.53
2018-06-07T20:20:25.545Z,20.17
2018-06-07T20:22:53.776Z,19.67
2018-06-07T20:25:21.986Z,19.77
2018-06-07T20:27:50.184Z,19.00
2018-06-07T20:30:18.563Z,20.53
2018-06-07T20:32:46.717Z,19.33
2018-06-07T20:35:17.181Z,23.17
2018-06-07T20:37:45.503Z,23.27
2018-06-07T20:40:13.723Z,22.20
2018-06-07T20:42:42.111Z,23.97
2018-06-07T20:45:10.826Z,24.40
2018-06-07T20:47:39.299Z,22.97
2018-06-07T20:50:07.553Z,22.43
2018-06-07T20:52:36.022Z,22.67
2018-06-07T20:55:04.246Z,23.93
2018-06-07T20:57:34.357Z,21.80
2018-06-07T21:00:02.634Z,24.47
2018-06-07T21:02:30.852Z,22.70
2018-06-07T21:04:59.134Z,25.33
2018-06-07T21:07:28.010Z,26.47
2018-06-07T21:09:56.501Z,24.90
2018-06-07T21:12:25.479Z,27.27
2018-06-07T21:14:55.157Z,24.57
2018-06-07T21:17:25.278Z,25.00
2018-06-07T21:19:53.777Z,26.17
2018-06-07T21:22:21.992Z,25.33
2018-06-07T21:24:50.196Z,25.57
2018-06-07T21:27:18.386Z,25.67
2018-06-07T21:29:46.534Z,25.43
2018-06-07T21:32:14.760Z,26.07
2018-06-07T21:34:43.017Z,25.77
2018-06-07T21:37:11.164Z,26.97
2018-06-07T21:39:39.358Z,26.20
2018-06-07T21:42:10.045Z,26.63
2018-06-07T21:44:38.226Z,27.47
2018-06-07T21:47:06.430Z,27.53
2018-06-07T21:49:34.650Z,29.60
2018-06-07T21:52:02.913Z,30.43
2018-06-07T21:54:31.088Z,27.57
2018-06-07T21:56:59.280Z,27.27
2018-06-07T21:59:27.454Z,29.40
2018-06-07T22:01:55.658Z,31.37
2018-06-07T22:04:23.813Z,28.43
2018-06-07T22:06:51.947Z,30.60
2018-06-07T22:09:20.121Z,31.33
2018-06-07T22:11:48.276Z,33.58
2018-06-07T22:14:16.489Z,32.40
2018-06-07T22:16:44.753Z,30.43
2018-06-07T22:19:13.185Z,33.77
2018-06-07T22:21:41.380Z,30.47
2018-06-07T22:24:09.880Z,33.90
2018-06-07T22:26:38.036Z,33.60
2018-06-07T22:29:07.106Z,34.70
2018-06-07T22:31:35.250Z,33.10
2018-06-07T22:34:03.485Z,35.50
2018-06-07T22:36:31.689Z,35.63
2018-06-07T22:38:59.856Z,38.17
2018-06-07T22:41:28.031Z,37.70
2018-06-07T22:43:56.231Z,40.50
2018-06-07T22:46:24.379Z,40.57
2018-06-07T22:48:52.573Z,40.37
2018-06-07T22:51:20.736Z,41.27
2018-06-07T22:53:48.909Z,40.37
2018-06-07T22:56:17.083Z,41.30
2018-06-07T22:58:45.237Z,44.00
2018-06-07T23:01:13.419Z,41.10
2018-06-07T23:03:41.637Z,42.57
2018-06-07T23:06:09.826Z,44.70
2018-06-07T23:08:37.977Z,41.83
2018-06-07T23:11:06.182Z,42.60
2018-06-07T23:13:34.369Z,42.43
2018-06-07T23:16:02.581Z,37.87
2018-06-07T23:18:30.773Z,43.43
2018-06-07T23:20:58.954Z,40.20
2018-06-07T23:23:27.185Z,41.80
2018-06-07T23:25:55.400Z,42.60
2018-06-07T23:28:23.595Z,40.67
2018-06-07T23:30:51.761Z,43.73
2018-06-07T23:33:19.979Z,42.97
2018-06-07T23:35:49.047Z,45.13
2018-06-07T23:38:17.205Z,45.13
2018-06-07T23:40:45.349Z,45.50
2018-06-07T23:43:13.531Z,44.93
2018-06-07T23:45:41.747Z,43.43
2018-06-07T23:48:09.947Z,45.33
2018-06-07T23:50:38.189Z,47.47
2018-06-07T23:53:06.423Z,47.47
2018-06-07T23:55:34.591Z,46.50
2018-06-07T23:58:02.787Z,47.13
